Hurlburt Field, FL

8:40 PM CST on November 23, 2014 (GMT -0600)
Hurlburt | Change Station
CLOSE
Current Station
Airport
Location: Hurlburt Field,
Elevation: 39 ft
Nearby Weather Stations
Active Advisory: Coastal Hazard Statement

Elev 39 ft 30.43 °N, 86.69 °W | Updated 17 minutes ago

Clear
Clear
68 °F
Feels Like 68 °F
N
7
Wind Variable Wind from SSW

Today
High -- | Low -- °F
--% Chance of Precip.
Yesterday
High -- | Low -- °F
Precip. -- in
6:19 AM 4:46 PM
Waxing Crescent, 3% visible
Pressure 29.77 in
Visibility 10.0 miles
Clouds Scattered Clouds 1100 ft
Mostly Cloudy 2000 ft
Mostly Cloudy 6500 ft
Dew Point 64 °F
Humidity 88%
Rainfall 0.67 in
Snow Depth Not available.
UV 0 out of 12
Pollen .40 out of 12
Air Quality Not available.
Flu Activity Not available.
SPECI KHRT 240223Z AUTO 21006KT 10SM SCT011 BKN020 BKN065 20/18 A2977 RMK AO2 CIG 020V065 $

More Conditions Fewer Conditions

Pressure 29.77 in
Visibility 10.0 miles
Clouds Scattered Clouds 1100 ft
Mostly Cloudy 2000 ft
Mostly Cloudy 6500 ft
Dew Point 64 °F
Humidity 88%
Rainfall 0.67 in
Snow Depth Not available.
UV 0 out of 12
Pollen .40 out of 12
Air Quality Not available.
Flu Activity Not available.
SPECI KHRT 240223Z AUTO 21006KT 10SM SCT011 BKN020 BKN065 20/18 A2977 RMK AO2 CIG 020V065 $

More Conditions Fewer Conditions

10-Day Weather Forecast

Almanac

Astronomy

Nov. 23, 2014 Rise Set
Actual Time
Civil Twilight
Nautical Twilight
Astronomical Twilight
Moon
Length of Visible Light
Length of Day
Tomorrow will be .
, % of the Moon is Illuminated

Today's Extremes

State Highs State Lows

Community

WunderPhotos

Upload Photos

1,773,257 photos uploaded!

WunderBlogs® & News

Nearby

Air Quality

  Air Quality AQ Index Pollutant
Not available.

Snow Depth

Station Depth Elevation

Earthquake Activity

City Distance Mag. Time & Date
Minimum magnitude displayed is 2.5.

Coastal Water Temperatures

Place Temperature

Nearby Weather Stations